Baudette, MN

8:52 AM CDT on May 24, 2015 (GMT -0500)
RAWS | | Change Station
CLOSE
Current Station
Personal Weather Station
Location: Baudette, MN
Elevation: 1112 ft
Nearby Weather Stations

Elev 1112 ft 48.67 °N, 94.62 °W | Updated 46 minutes ago

Clear
Clear
62 °F
Feels Like 62 °F
N
3
Wind Variable Wind from WNW
Gusts 5.0 mph

Today
High -- | Low -- °F
--% Chance of Precip.
Yesterday
High -- | Low -- °F
Precip. -- in
5:28 AM 9:04 PM
Waxing Crescent, 39% visible
Pressure 30.09 in
Visibility 10.0 miles
Clouds Clear
Dew Point 48 °F
Humidity 60%
Rainfall in
Snow Depth Not available.
UV 2 out of 12
Pollen 8.50 out of 12
Air Quality Not available.
Flu Activity Sporadic
METAR KBDE 241253Z AUTO 00000KT 10SM CLR 14/08 A3008 RMK AO2 SLP187 T01440083 TSNO

More Conditions Fewer Conditions

Pressure 30.09 in
Visibility 10.0 miles
Clouds Clear
Dew Point 48 °F
Humidity 60%
Rainfall in
Snow Depth Not available.
UV 2 out of 12
Pollen 8.50 out of 12
Air Quality Not available.
Flu Activity Sporadic
METAR KBDE 241253Z AUTO 00000KT 10SM CLR 14/08 A3008 RMK AO2 SLP187 T01440083 TSNO

More Conditions Fewer Conditions

10-Day Weather Forecast

Almanac

Astronomy

May. 24, 2015 Rise Set
Actual Time
Civil Twilight
Nautical Twilight
Astronomical Twilight
Moon
Length of Visible Light
Length of Day
Tomorrow will be .
, % of the Moon is Illuminated

Today's Extremes

State Highs State Lows

Community

WunderPhotos

Upload Photos

1,823,738 photos uploaded!

WunderBlogs® & News

Nearby

Air Quality

  Air Quality AQ Index Pollutant
Not available.

Snow Depth

Station Depth Elevation

Earthquake Activity

City Distance Mag. Time & Date
Minimum magnitude displayed is 2.5.

Coastal Water Temperatures

Place Temperature

Stations

Nearby Weather Stations

Station Location Temp. Windchill Dew Point Humidity Wind Precip. Elev Updated Type